Upstream stations:
Downstream station:
SHEF ID: CDNT2 Canadian Rv nr Canadian, TX
STATION TYPE:
Regulating: Stage = 8.00, Flow = 5231
STAGE RIV-FLOW BAT-LOAD
ft cfs volt
Ccp-Rev Ccp-Rev Ccp-Rev
(US/Central)
05/15 00:00 1.22 41 12.41
05/15 01:00 1.24 43 12.41
05/15 02:00 1.23 42 12.33
05/15 03:00 1.22 41 12.33
05/15 04:00 1.23 42 12.33
05/15 05:00 1.23 42 12.33
05/15 06:00 1.23 42 12.25
05/15 07:00 1.23 42 12.25
05/15 08:00 1.23 42 12.25
05/15 09:00 1.24 43 12.33
05/15 10:00 1.23 42 12.41
05/15 11:00 1.24 43 12.73
05/15 12:00 1.23 42 12.89
05/15 13:00 1.23 42 13.05
05/15 14:00 1.23 42 13.13
05/15 15:00 1.23 42 13.13
05/15 16:00 1.20 39 13.13
05/15 17:00 1.20 39 12.97
05/15 18:00 1.20 39 12.65
05/15 19:00 1.21 40 12.49
05/15 20:00 1.21 40 12.49
05/15 21:00 1.19 38 12.41
05/15 22:00 1.20 39 12.41
05/15 23:00 ---- ---- ----